createdAt,value
2018-07-07T00:02:43.232Z,100941.32
2018-07-07T00:05:40.436Z,100940.89
2018-07-07T00:08:38.365Z,100936.92
2018-07-07T00:11:35.673Z,100935.53
2018-07-07T00:14:33.600Z,100940.61
2018-07-07T00:17:31.642Z,100938.95
2018-07-07T00:20:29.579Z,100943.97
2018-07-07T00:23:26.895Z,100944.30
2018-07-07T00:26:24.200Z,100952.58
2018-07-07T00:29:21.538Z,100951.41
2018-07-07T00:32:18.778Z,100946.17
2018-07-07T00:35:16.027Z,100954.06
2018-07-07T00:38:13.724Z,100954.59
2018-07-07T00:41:10.893Z,100948.03
2018-07-07T00:44:08.607Z,100956.09
2018-07-07T00:47:06.674Z,100955.67
2018-07-07T00:50:04.115Z,100958.70
2018-07-07T00:53:01.351Z,100960.23
2018-07-07T00:55:59.313Z,100958.64
2018-07-07T00:58:56.658Z,100959.52
2018-07-07T01:01:54.759Z,100956.61
2018-07-07T01:04:52.947Z,100964.88
2018-07-07T01:07:50.087Z,100965.52
2018-07-07T01:10:47.543Z,100964.88
2018-07-07T01:13:44.715Z,100962.76
2018-07-07T01:16:42.833Z,100960.87
2018-07-07T01:19:40.814Z,100965.92
2018-07-07T01:22:38.830Z,100962.00
2018-07-07T01:25:36.808Z,100966.64
2018-07-07T01:28:34.868Z,100966.53
2018-07-07T01:31:32.658Z,100964.44
2018-07-07T01:34:30.674Z,100960.22
2018-07-07T01:37:28.773Z,100959.98
2018-07-07T01:40:26.142Z,100959.30
2018-07-07T01:43:23.971Z,100956.46
2018-07-07T01:46:22.907Z,100961.19
2018-07-07T01:49:20.827Z,100961.84
2018-07-07T01:52:18.786Z,100967.95
2018-07-07T01:55:16.961Z,100968.06
2018-07-07T01:58:14.799Z,100963.66
2018-07-07T02:01:12.925Z,100970.52
2018-07-07T02:04:10.059Z,100968.52
2018-07-07T02:07:08.079Z,100968.41
2018-07-07T02:10:05.328Z,100969.25
2018-07-07T02:13:03.262Z,100970.45
2018-07-07T02:16:01.450Z,100971.55
2018-07-07T02:18:59.448Z,100972.24
2018-07-07T02:21:56.586Z,100970.82
2018-07-07T02:24:54.630Z,100971.55
2018-07-07T02:27:52.546Z,100978.85
2018-07-07T02:30:49.696Z,100979.59
2018-07-07T02:33:47.621Z,100976.13
2018-07-07T02:36:45.532Z,100978.59
2018-07-07T02:39:43.220Z,100978.84
2018-07-07T02:42:41.285Z,100973.91
2018-07-07T02:45:38.286Z,100980.16
2018-07-07T02:48:36.404Z,100979.22
2018-07-07T02:51:34.451Z,100979.60
2018-07-07T02:54:32.446Z,100983.73
2018-07-07T02:57:30.509Z,100989.66
2018-07-07T03:00:27.654Z,100989.24
2018-07-07T03:03:25.875Z,100987.09
2018-07-07T03:06:23.964Z,100983.98
2018-07-07T03:09:21.186Z,100988.51
2018-07-07T03:12:19.408Z,100987.42
2018-07-07T03:15:17.572Z,100994.88
2018-07-07T03:18:15.542Z,100993.09
2018-07-07T03:21:12.850Z,100995.08
2018-07-07T03:24:10.068Z,101000.98
2018-07-07T03:27:08.187Z,101007.19
2018-07-07T03:30:06.434Z,101007.42
2018-07-07T03:33:03.653Z,101007.66
2018-07-07T03:36:01.791Z,101011.62
2018-07-07T03:38:58.885Z,101017.05
2018-07-07T03:41:56.145Z,101011.73
2018-07-07T03:44:54.315Z,101017.31
2018-07-07T03:47:52.228Z,101018.69
2018-07-07T03:50:49.878Z,101023.70
2018-07-07T03:53:47.094Z,101026.23
2018-07-07T03:56:44.190Z,101031.02
2018-07-07T03:59:41.429Z,101027.61
2018-07-07T04:02:38.639Z,101031.38
2018-07-07T04:05:36.480Z,101028.80
2018-07-07T04:08:33.594Z,101036.27
2018-07-07T04:11:31.460Z,101035.61
2018-07-07T04:14:29.432Z,101038.41
2018-07-07T04:17:26.627Z,101044.52
2018-07-07T04:20:24.651Z,101040.51
2018-07-07T04:23:21.772Z,101035.75
2018-07-07T04:26:19.787Z,101044.84
2018-07-07T04:29:17.247Z,101048.37
2018-07-07T04:32:14.933Z,101051.55
2018-07-07T04:35:12.186Z,101042.95
2018-07-07T04:38:09.283Z,101036.77
2018-07-07T04:41:07.422Z,101036.52
2018-07-07T04:44:05.570Z,101031.14
2018-07-07T04:47:02.839Z,101039.54
2018-07-07T04:50:00.038Z,101042.61
2018-07-07T04:52:57.970Z,101045.20
2018-07-07T04:55:55.674Z,101052.54
2018-07-07T04:58:53.718Z,101047.25
2018-07-07T05:01:51.883Z,101058.27
2018-07-07T05:04:49.871Z,101057.97
2018-07-07T05:07:47.855Z,101065.57
2018-07-07T05:10:45.251Z,101063.48
2018-07-07T05:13:43.121Z,101075.62
2018-07-07T05:16:40.612Z,101081.61
2018-07-07T05:19:38.631Z,101081.72
2018-07-07T05:22:36.852Z,101082.50
2018-07-07T05:25:34.785Z,101075.38
2018-07-07T05:28:32.056Z,101083.91
2018-07-07T05:31:30.219Z,101075.02
2018-07-07T05:34:28.274Z,101077.59
2018-07-07T05:37:26.310Z,101077.87
2018-07-07T05:40:23.426Z,101085.86
2018-07-07T05:43:20.490Z,101085.69
2018-07-07T05:46:18.581Z,101085.42
2018-07-07T05:49:15.862Z,101083.30
2018-07-07T05:52:14.104Z,101083.08
2018-07-07T05:55:11.641Z,101082.55
2018-07-07T05:58:09.898Z,101082.75
2018-07-07T06:01:08.110Z,101079.84
2018-07-07T06:04:05.382Z,101090.03
2018-07-07T06:07:02.654Z,101089.28
2018-07-07T06:09:59.754Z,101094.36
2018-07-07T06:12:57.987Z,101091.18
2018-07-07T06:15:55.294Z,101097.05
2018-07-07T06:18:52.653Z,101094.33
2018-07-07T06:21:50.118Z,101090.59
2018-07-07T06:24:48.286Z,101095.09
2018-07-07T06:27:46.102Z,101087.45
2018-07-07T06:30:43.156Z,101084.30
2018-07-07T06:33:40.645Z,101086.17
2018-07-07T06:36:38.030Z,101084.72
2018-07-07T06:39:35.704Z,101086.19
2018-07-07T06:42:32.812Z,101086.24
2018-07-07T06:45:30.699Z,101085.13
2018-07-07T06:48:28.881Z,101087.75
2018-07-07T06:51:26.212Z,101076.50
2018-07-07T06:54:24.164Z,101077.00
2018-07-07T06:57:21.346Z,101081.70
2018-07-07T07:00:19.276Z,101084.97
2018-07-07T07:03:16.326Z,101089.12
2018-07-07T07:06:14.358Z,101081.34
2018-07-07T07:09:11.641Z,101088.48
2018-07-07T07:12:09.892Z,101092.33
2018-07-07T07:15:07.795Z,101092.48
2018-07-07T07:18:06.157Z,101094.66
2018-07-07T07:21:04.398Z,101091.86
2018-07-07T07:24:01.987Z,101093.15
2018-07-07T07:27:00.123Z,101093.94
2018-07-07T07:29:57.431Z,101098.41
2018-07-07T07:32:55.664Z,101101.90
2018-07-07T07:35:53.054Z,101099.44
2018-07-07T07:38:51.003Z,101091.15
2018-07-07T07:41:49.132Z,101087.12
2018-07-07T07:44:47.173Z,101094.05
2018-07-07T07:47:46.105Z,101091.69
2018-07-07T07:50:44.146Z,101093.55
2018-07-07T07:53:42.211Z,101085.88
2018-07-07T07:56:39.383Z,101088.16
2018-07-07T07:59:37.481Z,101083.95
2018-07-07T08:02:35.305Z,101086.14
2018-07-07T08:05:33.258Z,101079.58
2018-07-07T08:08:31.263Z,101076.12
2018-07-07T08:11:29.391Z,101072.36
2018-07-07T08:14:27.426Z,101071.97
2018-07-07T08:17:25.302Z,101081.55
2018-07-07T08:20:23.614Z,101079.35
2018-07-07T08:23:21.671Z,101085.21
2018-07-07T08:26:19.827Z,101080.02
2018-07-07T08:29:17.943Z,101081.67
2018-07-07T08:32:15.651Z,101080.94
2018-07-07T08:35:12.772Z,101076.26
2018-07-07T08:38:10.678Z,101080.01
2018-07-07T08:41:08.204Z,101077.01
2018-07-07T08:44:06.094Z,101083.81
2018-07-07T08:47:03.522Z,101076.13
2018-07-07T08:50:01.449Z,101079.42
2018-07-07T08:52:59.478Z,101075.64
2018-07-07T08:55:57.007Z,101079.34
2018-07-07T08:58:55.035Z,101078.27
2018-07-07T09:01:53.166Z,101070.77
2018-07-07T09:04:50.915Z,101081.38
2018-07-07T09:07:48.192Z,101071.17
2018-07-07T09:10:46.278Z,101066.06
2018-07-07T09:13:43.470Z,101066.63
2018-07-07T09:16:41.115Z,101063.36
2018-07-07T09:19:39.097Z,101066.50
2018-07-07T09:22:36.943Z,101057.98
2018-07-07T09:25:34.982Z,101063.58
2018-07-07T09:28:33.003Z,101061.14
2018-07-07T09:31:31.082Z,101057.47
2018-07-07T09:34:28.210Z,101059.91
2018-07-07T09:37:26.361Z,101057.86
2018-07-07T09:40:23.533Z,101061.89
2018-07-07T09:43:20.922Z,101046.48
2018-07-07T09:46:18.252Z,101058.27
2018-07-07T09:49:16.248Z,101052.97
2018-07-07T09:52:13.619Z,101045.88
2018-07-07T09:55:11.803Z,101053.86
2018-07-07T09:58:09.750Z,101062.06
2018-07-07T10:01:08.111Z,101057.53
2018-07-07T10:04:05.590Z,101052.53
2018-07-07T10:07:03.602Z,101064.58
2018-07-07T10:10:00.929Z,101059.00
2018-07-07T10:12:57.919Z,101057.10
2018-07-07T10:15:55.854Z,101058.89
2018-07-07T10:18:54.051Z,101054.84
2018-07-07T10:21:52.223Z,101059.92
2018-07-07T10:24:50.216Z,101059.81
2018-07-07T10:27:48.014Z,101057.75
2018-07-07T10:30:45.016Z,101053.55
2018-07-07T10:33:42.782Z,101052.20
2018-07-07T10:36:41.670Z,101039.02
2018-07-07T10:39:39.987Z,101050.39
2018-07-07T10:42:38.131Z,101042.80
2018-07-07T10:45:36.196Z,101050.10
2018-07-07T10:48:33.587Z,101051.23
2018-07-07T10:51:30.909Z,101049.28
2018-07-07T10:54:28.908Z,101041.00
2018-07-07T10:57:26.980Z,101050.08
2018-07-07T11:00:25.063Z,101048.94
2018-07-07T11:03:23.107Z,101044.18
2018-07-07T11:06:21.173Z,101040.16
2018-07-07T11:09:19.304Z,101052.46
2018-07-07T11:12:17.487Z,101034.85
2018-07-07T11:15:15.644Z,101039.03
2018-07-07T11:18:13.865Z,101044.24
2018-07-07T11:21:11.195Z,101037.60
2018-07-07T11:24:09.163Z,101036.17
2018-07-07T11:27:06.626Z,101033.00
2018-07-07T11:30:03.995Z,101030.86
2018-07-07T11:33:01.477Z,101031.92
2018-07-07T11:35:58.782Z,101038.72
2018-07-07T11:38:56.551Z,101029.23
2018-07-07T11:41:54.054Z,101037.20
2018-07-07T11:44:51.327Z,101029.36
2018-07-07T11:47:48.996Z,101033.05
2018-07-07T11:50:46.194Z,101018.73
2018-07-07T11:53:43.705Z,101027.73
2018-07-07T11:56:41.536Z,101017.94
2018-07-07T11:59:38.976Z,101026.81
2018-07-07T12:02:37.128Z,101028.99
2018-07-07T12:05:35.000Z,101026.15
2018-07-07T12:08:32.213Z,101023.41
2018-07-07T12:11:30.254Z,101023.81
2018-07-07T12:14:28.279Z,101018.24
2018-07-07T12:17:25.615Z,101017.69
2018-07-07T12:20:23.130Z,101011.25
2018-07-07T12:23:20.217Z,101015.57
2018-07-07T12:26:17.662Z,101012.66
2018-07-07T12:29:14.838Z,101013.60
2018-07-07T12:32:11.983Z,101015.30
2018-07-07T12:35:09.922Z,101012.94
2018-07-07T12:38:07.336Z,101004.86
2018-07-07T12:41:04.634Z,101005.45
2018-07-07T12:44:02.129Z,100998.11
2018-07-07T12:46:59.514Z,100995.89
2018-07-07T12:49:57.117Z,101005.01
2018-07-07T12:52:54.411Z,101009.03
2018-07-07T12:55:52.743Z,100997.58
2018-07-07T12:58:49.958Z,100988.09
2018-07-07T13:01:47.167Z,100991.05
2018-07-07T13:04:44.619Z,100989.52
2018-07-07T13:07:42.255Z,100988.85
2018-07-07T13:10:39.467Z,100991.69
2018-07-07T13:13:36.599Z,100985.69
2018-07-07T13:16:33.742Z,100981.02
2018-07-07T13:19:31.105Z,100984.01
2018-07-07T13:22:29.394Z,100982.05
2018-07-07T13:25:27.535Z,100979.78
2018-07-07T13:28:24.839Z,100983.39
2018-07-07T13:31:22.366Z,100970.66
2018-07-07T13:34:22.946Z,100974.94
2018-07-07T13:37:20.477Z,100979.73
2018-07-07T13:40:18.683Z,100983.72
2018-07-07T13:43:16.440Z,100978.17
2018-07-07T13:46:13.436Z,100974.00
2018-07-07T13:49:10.974Z,100970.23
2018-07-07T13:52:08.631Z,100974.56
2018-07-07T13:55:05.908Z,100969.09
2018-07-07T13:58:03.436Z,100965.56
2018-07-07T14:01:00.644Z,100965.66
2018-07-07T14:03:57.758Z,100971.86
2018-07-07T14:06:55.084Z,100963.97
2018-07-07T14:09:52.367Z,100968.67
2018-07-07T14:12:49.611Z,100967.97
2018-07-07T14:15:47.122Z,100966.63
2018-07-07T14:18:44.515Z,100960.16
2018-07-07T14:21:41.857Z,100961.59
2018-07-07T14:24:39.155Z,100967.22
2018-07-07T14:27:37.294Z,100962.44
2018-07-07T14:30:35.437Z,100956.45
2018-07-07T14:33:33.387Z,100960.90
2018-07-07T14:36:31.484Z,100957.20
2018-07-07T14:39:29.743Z,100957.61
2018-07-07T14:42:38.282Z,100962.45
2018-07-07T14:45:39.505Z,100958.95
2018-07-07T14:48:37.332Z,100962.53
2018-07-07T14:51:35.698Z,100943.16
2018-07-07T14:54:33.647Z,100956.32
2018-07-07T14:57:31.760Z,100955.52
2018-07-07T15:00:32.371Z,100957.93
2018-07-07T15:03:30.041Z,100953.23
2018-07-07T15:06:28.182Z,100954.05
2018-07-07T15:09:25.363Z,100948.98
2018-07-07T15:12:22.550Z,100946.41
2018-07-07T15:15:20.509Z,100951.17
2018-07-07T15:18:18.764Z,100950.42
2018-07-07T15:21:16.081Z,100943.21
2018-07-07T15:24:13.699Z,100941.11
2018-07-07T15:27:10.947Z,100948.79
2018-07-07T15:30:08.139Z,100946.08
2018-07-07T15:33:06.180Z,100940.39
2018-07-07T15:36:04.201Z,100934.25
2018-07-07T15:39:01.996Z,100931.17
2018-07-07T15:41:59.929Z,100928.39
2018-07-07T15:44:57.258Z,100936.18
2018-07-07T15:47:55.067Z,100930.33
2018-07-07T15:50:53.141Z,100934.27
2018-07-07T15:53:50.134Z,100932.61
2018-07-07T15:56:47.351Z,100924.95
2018-07-07T15:59:44.599Z,100934.47
2018-07-07T16:02:42.632Z,100914.72
2018-07-07T16:05:40.723Z,100918.95
2018-07-07T16:08:38.638Z,100914.70
2018-07-07T16:11:36.782Z,100917.72
2018-07-07T16:14:34.825Z,100919.88
2018-07-07T16:17:32.171Z,100911.91
2018-07-07T16:20:30.007Z,100913.14
2018-07-07T16:23:27.185Z,100912.54
2018-07-07T16:26:24.472Z,100911.70
2018-07-07T16:29:22.585Z,100923.09
2018-07-07T16:32:19.823Z,100920.70
2018-07-07T16:35:16.838Z,100925.02
2018-07-07T16:38:14.280Z,100916.05
2018-07-07T16:41:12.419Z,100906.30
2018-07-07T16:44:09.788Z,100908.88
2018-07-07T16:47:07.311Z,100906.42
2018-07-07T16:50:04.905Z,100909.40
2018-07-07T16:53:02.441Z,100914.89
2018-07-07T16:56:01.351Z,100910.83
2018-07-07T16:58:58.516Z,100913.78
2018-07-07T17:01:57.813Z,100918.88
2018-07-07T17:04:55.768Z,100913.52
2018-07-07T17:08:02.293Z,100903.52
2018-07-07T17:11:00.348Z,100918.55
2018-07-07T17:13:57.615Z,100911.11
2018-07-07T17:16:55.738Z,100911.23
2018-07-07T17:19:53.950Z,100913.58
2018-07-07T17:22:51.917Z,100915.37
2018-07-07T17:25:49.281Z,100920.47
2018-07-07T17:28:46.528Z,100915.66
2018-07-07T17:31:43.803Z,100912.25
2018-07-07T17:34:43.308Z,100912.66
2018-07-07T17:37:40.527Z,100909.59
2018-07-07T17:40:37.998Z,100909.88
2018-07-07T17:43:36.550Z,100909.14
2018-07-07T17:46:34.921Z,100907.45
2018-07-07T17:49:32.322Z,100913.56
2018-07-07T17:52:29.931Z,100920.94
2018-07-07T17:55:27.499Z,100912.92
2018-07-07T17:58:25.479Z,100929.33
2018-07-07T18:01:23.551Z,100927.22
2018-07-07T18:04:20.718Z,100932.98
2018-07-07T18:07:19.110Z,100928.61
2018-07-07T18:10:17.091Z,100937.44
2018-07-07T18:13:15.284Z,100940.50
2018-07-07T18:16:13.431Z,100932.63
2018-07-07T18:19:10.601Z,100933.86
2018-07-07T18:22:07.908Z,100942.98
2018-07-07T18:25:05.821Z,100942.69
2018-07-07T18:28:03.110Z,100936.17
2018-07-07T18:31:01.162Z,100943.97
2018-07-07T18:33:58.814Z,100941.91
2018-07-07T18:36:56.344Z,100937.52
2018-07-07T18:39:54.471Z,100937.48
2018-07-07T18:42:51.586Z,100945.41
2018-07-07T18:45:49.733Z,100942.68
2018-07-07T18:48:46.882Z,100944.36
2018-07-07T18:51:43.991Z,100949.69
2018-07-07T18:54:41.360Z,100956.64
2018-07-07T18:57:38.696Z,100955.05
2018-07-07T19:00:35.877Z,100942.59
2018-07-07T19:03:33.471Z,100951.50
2018-07-07T19:06:30.918Z,100959.95
2018-07-07T19:09:29.304Z,100954.70
2018-07-07T19:12:27.478Z,100948.81
2018-07-07T19:15:29.592Z,100949.53
2018-07-07T19:18:27.615Z,100958.34
2018-07-07T19:21:31.720Z,100955.89
2018-07-07T19:24:35.143Z,100953.59
2018-07-07T19:27:32.370Z,100961.50
2018-07-07T19:30:30.335Z,100964.00
2018-07-07T19:33:34.387Z,100962.23
2018-07-07T19:36:37.867Z,100963.61
2018-07-07T19:39:35.341Z,100969.03
2018-07-07T19:42:33.342Z,100970.73
2018-07-07T19:45:31.395Z,100967.92
2018-07-07T19:48:28.666Z,100974.12
2018-07-07T19:51:25.763Z,100976.31
2018-07-07T19:54:23.781Z,100975.52
2018-07-07T19:57:21.695Z,100979.20
2018-07-07T20:00:19.134Z,100977.53
2018-07-07T20:03:17.143Z,100979.04
2018-07-07T20:06:15.501Z,100975.72
2018-07-07T20:09:12.739Z,100976.56
2018-07-07T20:12:11.035Z,100986.73
2018-07-07T20:15:09.101Z,100984.25
2018-07-07T20:18:15.249Z,100982.42
2018-07-07T20:21:33.500Z,100982.91
2018-07-07T20:24:36.510Z,100986.24
2018-07-07T20:27:39.710Z,100994.23
2018-07-07T20:30:37.645Z,100995.55
2018-07-07T20:33:36.351Z,100993.55
2018-07-07T20:36:34.251Z,100995.83
2018-07-07T20:39:32.185Z,101000.47
2018-07-07T20:42:30.274Z,101004.95
2018-07-07T20:45:28.297Z,101010.11
2018-07-07T20:48:26.558Z,101008.39
2018-07-07T20:51:24.714Z,101006.02
2018-07-07T20:54:22.063Z,101004.69
2018-07-07T20:57:20.028Z,101007.64
2018-07-07T21:00:17.297Z,101009.80
2018-07-07T21:03:14.686Z,101009.95
2018-07-07T21:06:12.077Z,101013.25
2018-07-07T21:09:10.131Z,101007.56
2018-07-07T21:12:07.408Z,101015.00
2018-07-07T21:15:04.611Z,101020.39
2018-07-07T21:18:01.799Z,101019.68
2018-07-07T21:20:59.427Z,101015.31
2018-07-07T21:23:57.386Z,101018.12
2018-07-07T21:26:55.163Z,101015.27
2018-07-07T21:29:52.262Z,101024.01
2018-07-07T21:32:49.880Z,101015.09
2018-07-07T21:35:47.054Z,101020.84
2018-07-07T21:38:44.187Z,101017.98
2018-07-07T21:41:41.561Z,101016.91
2018-07-07T21:44:39.478Z,101021.20
2018-07-07T21:47:36.767Z,101018.30
2018-07-07T21:50:34.966Z,101022.59
2018-07-07T21:53:33.151Z,101024.40
2018-07-07T21:56:30.379Z,101024.64
2018-07-07T21:59:27.572Z,101028.63
2018-07-07T22:02:30.962Z,101029.66
2018-07-07T22:05:35.187Z,101033.69
2018-07-07T22:08:32.453Z,101038.88
2018-07-07T22:11:29.772Z,101037.22
2018-07-07T22:14:26.971Z,101039.58
2018-07-07T22:17:24.831Z,101032.27
2018-07-07T22:20:22.310Z,101038.52
2018-07-07T22:23:19.684Z,101036.75
2018-07-07T22:26:16.874Z,101040.92
2018-07-07T22:29:14.711Z,101038.66
2018-07-07T22:32:14.302Z,101045.88
2018-07-07T22:35:17.990Z,101037.52
2018-07-07T22:38:21.355Z,101036.66
2018-07-07T22:41:19.352Z,101041.52
2018-07-07T22:44:17.628Z,101044.59
2018-07-07T22:47:15.524Z,101039.66
2018-07-07T22:50:13.282Z,101041.14
2018-07-07T22:53:11.182Z,101037.84
2018-07-07T22:56:09.351Z,101031.38
2018-07-07T22:59:07.467Z,101038.62
2018-07-07T23:02:05.523Z,101036.89
2018-07-07T23:05:03.652Z,101038.38
2018-07-07T23:08:01.721Z,101033.98
2018-07-07T23:10:59.876Z,101031.86
2018-07-07T23:13:57.624Z,101036.95
2018-07-07T23:16:55.438Z,101034.66
2018-07-07T23:19:53.418Z,101035.50
2018-07-07T23:23:02.747Z,101040.66
2018-07-07T23:25:59.915Z,101033.27
2018-07-07T23:28:57.138Z,101036.20
2018-07-07T23:31:54.545Z,101049.23
2018-07-07T23:34:52.808Z,101039.20
2018-07-07T23:37:50.013Z,101041.48
2018-07-07T23:40:48.090Z,101044.02
2018-07-07T23:43:45.278Z,101041.98
2018-07-07T23:46:43.087Z,101041.12
2018-07-07T23:49:40.315Z,101038.13
2018-07-07T23:52:38.215Z,101042.28
2018-07-07T23:55:35.255Z,101034.89
2018-07-07T23:58:32.545Z,101036.66
